Aérodrome :
LOGIN :

S'inscrire | Disclaimer

   EN    FR    IT 

 










Légende :    VFR   VFR Marginal   IFR   IFR Intensif   IFR Très Intensif
Visi : 
Plafond : 
>= 8 km
>= 3000ft
5 à 8 km
1000 à 3000 ft
1500m à 5 km
500 à 1000 ft
800 à 1500m
200 à 500 ft
< 800m
< 200 ft
Symboles :   Orages  Brouillard  Fortes neiges  Fortes précipitations  Vent > 20 kt
SIGMETs :   Divers  Orages  Givrage  Turbulence  Onde Orograph.  Cendres Volcan.






- Altitude de l'aérodrome : 1460 ft


LSMA - Alpnach

DERNIER METAR :
  • 210250Z AUTO VRB01KT 9999NDV -SHRA FEW052 OVC091 12/11 Q1016 RMK

METARs EXPIRÉS :
  • 210220Z AUTO 21004KT 160V280 9999NDV -SHRA OVC073 12/11 Q1016 RMK
  • 210150Z AUTO VRB01KT 9999NDV -SHRA FEW050 SCT063 OVC094 12/11 Q1016 RMK
  • 210120Z AUTO VRB01KT 9999NDV FEW029 OVC100 13/11 Q1016 RMK
  • 210050Z AUTO 24004KT 210V270 9999NDV FEW029 SCT120 BKN150 13/11 Q1015 RMK
  • 210020Z AUTO 14003KT 070V220 9999NDV FEW024 SCT220 13/10 Q1013 RMK

Prévision TAF périmée.



MET'MAP, la Météo Aéronautique d'un coup d'oeil ! - Copyright ORBIFLY Décembre 2007 - Disclaimer

ORBIFLY MET'MAP TEAM :

Programmation & Développement : Alexandra Zaïnal
Conception & Développement : Baudouin d'Aumeries
Co-Programmation & Développement : Marc-Olivier Méhu
Soutien technique & logistique : Manuel Goepfert

Contact : metmap@orbifly.com




SOURCES & CREDITS :

   NOAA